Time;durP1;ratioP1;P1;durP2;ratioP2;P2;SDS_P1;SDS_P2;PMS_P1;PMS_P2;Temp;Humidity;BMP_temperature;BMP_pressure;BME280_temperature;BME280_humidity;BME280_pressure;Samples;Min_cycle;Max_cycle;Signal;HPM_P1;HPM_P2
2024/03/14 06:16:47;;;;;;;;;20.00;16.67;;;;;;;;5471123;23;8883;-67
2024/03/14 06:19:12;;;;;;;;;32.00;30.33;;;;;;;;4924343;29;8852;-68
2024/03/14 06:21:40;;;;;;;;;34.00;27.33;;;;;;;;4915001;29;8848;-68
2024/03/14 06:24:05;;;;;;;;;31.67;28.00;;;;;;;;4915326;29;8963;-67
2024/03/14 06:26:31;;;;;;;;;34.33;28.00;;;;;;;;4915144;29;11698;-76
2024/03/14 06:28:56;;;;;;;;;28.00;27.33;;;;;;;;4915323;29;8910;-75
2024/03/14 06:31:21;;;;;;;;;27.33;24.67;;;;;;;;4915078;29;8913;-75
2024/03/14 06:33:46;;;;;;;;;29.67;26.67;;;;;;;;4915313;29;8931;-69
2024/03/14 06:36:12;;;;;;;;;28.33;28.33;;;;;;;;4915086;29;8799;-70
2024/03/14 06:38:37;;;;;;;;;34.00;28.67;;;;;;;;4915250;29;8824;-71
2024/03/14 06:41:03;;;;;;;;;32.33;28.67;;;;;;;;4914965;29;8811;-70
2024/03/14 06:43:28;;;;;;;;;31.67;27.00;;;;;;;;4914928;29;8858;-70
2024/03/14 06:45:53;;;;;;;;;33.33;33.00;;;;;;;;4911488;29;8979;-75
2024/03/14 06:48:18;;;;;;;;;34.00;29.00;;;;;;;;4914764;29;8815;-83
2024/03/14 06:50:45;;;;;;;;;30.33;27.33;;;;;;;;4914870;29;8804;-73
2024/03/14 06:53:11;;;;;;;;;37.67;28.00;;;;;;;;4914751;29;8843;-70
2024/03/14 06:55:36;;;;;;;;;32.33;30.33;;;;;;;;4914674;29;11607;-72
2024/03/14 06:58:02;;;;;;;;;32.00;29.33;;;;;;;;4864497;28;10675;-73
2024/03/14 07:00:29;;;;;;;;;50.67;40.67;;;;;;;;4945622;29;8827;-77
2024/03/14 07:02:55;;;;;;;;;57.00;46.33;;;;;;;;4931594;29;8819;-74
2024/03/14 07:05:23;;;;;;;;;33.33;25.67;;;;;;;;4931483;29;8870;-75
2024/03/14 07:07:49;;;;;;;;;38.33;32.67;;;;;;;;4931360;29;8834;-75
2024/03/14 07:10:16;;;;;;;;;33.67;29.67;;;;;;;;4930072;29;9573;-75
2024/03/14 07:12:42;;;;;;;;;37.33;33.67;;;;;;;;4931300;29;8802;-74
2024/03/14 07:15:07;;;;;;;;;33.67;29.00;;;;;;;;4931890;29;8893;-75
2024/03/14 07:17:35;;;;;;;;;29.33;26.67;;;;;;;;4932883;29;8941;-73
2024/03/14 07:20:09;;;;;;;;;30.00;26.33;;;;;;;;4933146;29;8825;-73
2024/03/14 07:22:35;;;;;;;;;36.00;32.67;;;;;;;;4933056;29;11603;-73
2024/03/14 07:25:01;;;;;;;;;37.33;32.00;;;;;;;;4932948;29;8822;-77
2024/03/14 07:27:27;;;;;;;;;40.67;33.00;;;;;;;;4939186;29;8864;-73
2024/03/14 07:29:53;;;;;;;;;37.00;32.33;;;;;;;;4937165;28;8846;-73
2024/03/14 07:32:19;;;;;;;;;34.67;29.00;;;;;;;;4952200;28;11613;-78
2024/03/14 07:34:44;;;;;;;;;33.00;32.00;;;;;;;;4939215;28;9858;-72
2024/03/14 07:37:10;;;;;;;;;35.33;27.00;;;;;;;;4931710;29;11606;-73
2024/03/14 07:39:35;;;;;;;;;32.33;31.67;;;;;;;;4947299;29;8857;-74
2024/03/14 07:42:02;;;;;;;;;34.67;30.33;;;;;;;;4932896;29;8825;-74
2024/03/14 07:44:27;;;;;;;;;34.33;30.00;;;;;;;;4929710;29;9585;-74
2024/03/14 07:46:52;;;;;;;;;33.00;30.67;;;;;;;;4947400;29;11641;-76
2024/03/14 07:49:18;;;;;;;;;34.33;33.00;;;;;;;;4932393;29;8873;-73
2024/03/14 07:51:43;;;;;;;;;29.50;27.00;;;;;;;;4933141;29;8837;-75
2024/03/14 07:54:11;;;;;;;;;31.50;29.25;;;;;;;;4930996;29;8937;-73
2024/03/14 07:56:36;;;;;;;;;35.25;28.25;;;;;;;;4933001;29;8837;-74
2024/03/14 07:59:02;;;;;;;;;27.50;26.00;;;;;;;;4932009;29;11621;-76
2024/03/14 08:01:28;;;;;;;;;28.25;26.00;;;;;;;;4932636;29;8821;-76
2024/03/14 08:03:55;;;;;;;;;31.75;27.50;;;;;;;;4931212;29;8885;-75
2024/03/14 08:06:22;;;;;;;;;36.67;32.00;;;;;;;;4932399;29;11579;-74
2024/03/14 08:08:47;;;;;;;;;36.33;32.00;;;;;;;;4931011;29;11635;-70
2024/03/14 08:11:12;;;;;;;;;28.25;28.25;;;;;;;;4932584;29;11562;-72
2024/03/14 08:13:39;;;;;;;;;33.00;31.00;;;;;;;;4931459;29;9588;-70
2024/03/14 08:16:22;;;;;;;;;34.00;32.67;;;;;;;;4933349;29;8815;-70
2024/03/14 08:18:47;;;;;;;;;31.25;28.00;;;;;;;;4920402;29;11636;-70
2024/03/14 08:21:14;;;;;;;;;28.00;25.25;;;;;;;;4932600;29;11609;-71
2024/03/14 08:23:42;;;;;;;;;37.25;27.75;;;;;;;;4931756;29;8833;-72
2024/03/14 08:26:08;;;;;;;;;23.00;21.75;;;;;;;;4931769;29;11603;-71
2024/03/14 08:28:34;;;;;;;;;25.75;24.75;;;;;;;;4932056;29;11618;-71
2024/03/14 08:31:01;;;;;;;;;29.00;26.75;;;;;;;;4932469;29;8876;-70
2024/03/14 08:33:26;;;;;;;;;28.25;24.50;;;;;;;;4931718;29;11656;-75
2024/03/14 08:35:52;;;;;;;;;26.25;24.75;;;;;;;;4931382;29;11600;-70
2024/03/14 08:38:18;;;;;;;;;23.00;20.25;;;;;;;;4935520;29;8868;-74
2024/03/14 08:40:44;;;;;;;;;27.00;25.50;;;;;;;;4935845;29;11580;-75
2024/03/14 08:43:11;;;;;;;;;46.67;39.33;;;;;;;;4935730;29;8841;-74
2024/03/14 08:45:36;;;;;;;;;39.75;34.00;;;;;;;;4932534;29;8835;-72
2024/03/14 08:48:07;;;;;;;;;32.50;29.50;;;;;;;;4930936;29;11720;-67
2024/03/14 08:50:32;;;;;;;;;33.25;29.25;;;;;;;;4933958;29;8840;-67
2024/03/14 08:52:57;;;;;;;;;28.50;28.00;;;;;;;;4935385;29;12544;-67
2024/03/14 08:55:23;;;;;;;;;27.75;27.00;;;;;;;;4933756;29;9678;-68
2024/03/14 08:57:51;;;;;;;;;21.00;19.75;;;;;;;;4934956;29;8897;-68
2024/03/14 09:00:17;;;;;;;;;20.50;17.50;;;;;;;;4934971;29;8921;-67
2024/03/14 09:02:43;;;;;;;;;22.25;20.00;;;;;;;;4935411;29;11593;-68
2024/03/14 09:05:11;;;;;;;;;22.75;21.50;;;;;;;;4933370;29;11602;-71
2024/03/14 09:07:40;;;;;;;;;32.75;29.25;;;;;;;;4934955;29;11663;-81
2024/03/14 09:10:15;;;;;;;;;27.00;21.50;;;;;;;;4934952;29;11608;-81
2024/03/14 09:12:41;;;;;;;;;24.50;22.50;;;;;;;;4935452;29;11691;-75
2024/03/14 09:15:09;;;;;;;;;23.00;21.50;;;;;;;;4932968;29;12370;-74
2024/03/14 09:17:34;;;;;;;;;23.50;21.50;;;;;;;;4934824;29;8819;-79
2024/03/14 09:19:59;;;;;;;;;19.50;19.50;;;;;;;;4934663;29;11571;-76
2024/03/14 09:22:25;;;;;;;;;23.25;20.75;;;;;;;;4935183;29;8818;-76
2024/03/14 09:24:50;;;;;;;;;24.00;22.00;;;;;;;;4929702;29;8837;-80
2024/03/14 09:27:15;;;;;;;;;19.00;18.75;;;;;;;;4934774;29;9611;-75
2024/03/14 09:29:41;;;;;;;;;21.50;20.25;;;;;;;;4940910;29;8815;-73
2024/03/14 09:32:06;;;;;;;;;24.75;24.75;;;;;;;;4933737;29;8814;-73
2024/03/14 09:34:32;;;;;;;;;24.00;22.75;;;;;;;;4941520;29;8819;-69
2024/03/14 09:36:57;;;;;;;;;24.25;21.25;;;;;;;;4933445;29;8973;-72
2024/03/14 09:39:22;;;;;;;;;28.25;23.00;;;;;;;;4931839;29;9975;-71
2024/03/14 09:41:48;;;;;;;;;22.50;21.75;;;;;;;;4934913;29;8814;-74
2024/03/14 09:44:18;;;;;;;;;24.00;22.00;;;;;;;;4934367;29;8814;-73
2024/03/14 09:46:48;;;;;;;;;26.25;23.50;;;;;;;;4930196;29;9548;-73
2024/03/14 09:49:15;;;;;;;;;26.50;22.00;;;;;;;;4915366;29;11597;-73
2024/03/14 09:51:40;;;;;;;;;26.25;23.00;;;;;;;;4915630;29;12322;-73
2024/03/14 09:54:06;;;;;;;;;31.50;26.50;;;;;;;;4915237;29;11580;-73
2024/03/14 09:56:31;;;;;;;;;24.25;23.25;;;;;;;;4915541;29;8856;-73
2024/03/14 09:58:56;;;;;;;;;24.00;21.75;;;;;;;;4915309;29;8825;-73
2024/03/14 10:01:21;;;;;;;;;26.00;22.25;;;;;;;;4914240;29;8935;-73
2024/03/14 10:03:47;;;;;;;;;23.50;18.25;;;;;;;;4915371;29;8817;-72
2024/03/14 10:06:17;;;;;;;;;22.50;18.25;;;;;;;;4915283;29;8812;-72
2024/03/14 10:08:46;;;;;;;;;26.25;22.50;;;;;;;;4915476;29;8872;-74
2024/03/14 10:11:13;;;;;;;;;23.25;21.00;;;;;;;;4915192;29;11735;-70
2024/03/14 10:13:39;;;;;;;;;23.75;23.50;;;;;;;;4927514;29;11604;-72
2024/03/14 10:16:05;;;;;;;;;21.75;18.25;;;;;;;;4933741;29;11592;-73
2024/03/14 10:18:31;;;;;;;;;23.00;20.00;;;;;;;;4933784;29;8926;-69
2024/03/14 10:20:57;;;;;;;;;23.75;20.25;;;;;;;;4934100;29;11584;-72
2024/03/14 10:23:22;;;;;;;;;23.00;22.75;;;;;;;;4896508;29;11594;-72
2024/03/14 10:25:53;;;;;;;;;25.00;23.00;;;;;;;;4932784;29;8945;-73
2024/03/14 10:28:20;;;;;;;;;22.50;18.50;;;;;;;;4932626;29;8856;-73
2024/03/14 10:30:51;;;;;;;;;19.50;19.50;;;;;;;;4934108;29;11571;-72
2024/03/14 10:33:16;;;;;;;;;28.25;24.25;;;;;;;;4933788;29;11664;-71
2024/03/14 10:35:41;;;;;;;;;28.75;21.75;;;;;;;;4933464;28;11589;-70
2024/03/14 10:38:11;;;;;;;;;24.25;20.75;;;;;;;;4936078;29;8854;-71
2024/03/14 10:40:39;;;;;;;;;25.75;25.00;;;;;;;;4932883;29;8811;-72
2024/03/14 10:43:06;;;;;;;;;25.00;22.50;;;;;;;;4933490;29;11021;-72
2024/03/14 10:45:31;;;;;;;;;25.25;23.75;;;;;;;;4933235;29;11571;-73
2024/03/14 10:47:57;;;;;;;;;26.50;24.75;;;;;;;;4933158;29;11735;-72
2024/03/14 10:50:22;;;;;;;;;33.25;27.00;;;;;;;;4932436;29;8827;-73
2024/03/14 10:52:54;;;;;;;;;27.00;26.25;;;;;;;;4932949;29;8838;-73
2024/03/14 10:55:24;;;;;;;;;23.50;22.50;;;;;;;;4933349;29;8814;-72
2024/03/14 10:57:49;;;;;;;;;27.25;24.25;;;;;;;;4932467;29;11666;-72
2024/03/14 11:00:17;;;;;;;;;29.25;22.75;;;;;;;;4932380;29;11717;-72
2024/03/14 11:02:46;;;;;;;;;30.00;28.25;;;;;;;;4932701;29;8818;-72
2024/03/14 11:05:12;;;;;;;;;25.50;22.25;;;;;;;;4933140;29;11610;-72
2024/03/14 11:07:41;;;;;;;;;25.50;22.50;;;;;;;;4932823;29;11571;-73
2024/03/14 11:10:12;;;;;;;;;28.50;27.00;;;;;;;;4932712;29;11567;-72
2024/03/14 11:12:38;;;;;;;;;28.75;27.75;;;;;;;;4930506;29;11593;-72
2024/03/14 11:15:09;;;;;;;;;25.50;23.25;;;;;;;;4932203;29;11578;-72
2024/03/14 11:17:35;;;;;;;;;29.50;28.50;;;;;;;;4923287;29;11595;-71
2024/03/14 11:20:07;;;;;;;;;26.50;25.00;;;;;;;;4931619;29;11585;-71
2024/03/14 11:22:32;;;;;;;;;25.50;24.50;;;;;;;;4931057;29;11624;-71
2024/03/14 11:24:59;;;;;;;;;22.50;21.25;;;;;;;;4932261;29;11573;-69
2024/03/14 11:27:24;;;;;;;;;33.50;25.50;;;;;;;;4932218;29;8814;-73
2024/03/14 11:29:51;;;;;;;;;21.25;21.25;;;;;;;;4932522;29;11843;-72
2024/03/14 11:32:30;;;;;;;;;26.50;23.00;;;;;;;;4931132;29;9680;-70
2024/03/14 11:34:58;;;;;;;;;25.50;23.25;;;;;;;;4932968;29;11583;-68
2024/03/14 11:37:23;;;;;;;;;25.25;19.50;;;;;;;;4932850;29;11588;-68
2024/03/14 11:39:48;;;;;;;;;22.50;22.50;;;;;;;;4932062;29;11623;-69
2024/03/14 11:42:16;;;;;;;;;23.25;21.00;;;;;;;;4945521;29;8912;-67
2024/03/14 11:44:42;;;;;;;;;27.25;21.00;;;;;;;;4933084;29;8803;-68
2024/03/14 11:47:13;;;;;;;;;20.50;20.00;;;;;;;;4928251;29;11624;-68
2024/03/14 11:49:42;;;;;;;;;24.50;20.75;;;;;;;;4913937;29;11726;-68
2024/03/14 11:52:10;;;;;;;;;22.25;19.00;;;;;;;;4913909;29;11588;-68
2024/03/14 11:54:35;;;;;;;;;21.75;20.00;;;;;;;;4913876;29;11661;-68
2024/03/14 11:57:01;;;;;;;;;22.75;21.00;;;;;;;;4913520;29;11645;-68
2024/03/14 11:59:26;;;;;;;;;19.00;16.50;;;;;;;;4914111;29;8844;-68
2024/03/14 12:01:54;;;;;;;;;25.25;20.50;;;;;;;;4913912;29;8798;-69
2024/03/14 12:04:19;;;;;;;;;18.50;18.50;;;;;;;;4913703;29;8829;-69
2024/03/14 12:06:46;;;;;;;;;21.75;21.25;;;;;;;;4913594;29;11548;-69
2024/03/14 12:09:20;;;;;;;;;23.25;20.00;;;;;;;;4912607;29;8821;-71
2024/03/14 12:11:46;;;;;;;;;23.25;18.25;;;;;;;;4931140;29;11600;-68
2024/03/14 12:14:18;;;;;;;;;19.50;18.25;;;;;;;;4917308;29;11616;-69
2024/03/14 12:16:47;;;;;;;;;18.00;17.25;;;;;;;;4917102;29;8829;-69
2024/03/14 12:19:19;;;;;;;;;20.50;20.00;;;;;;;;4917026;29;11703;-69
2024/03/14 12:21:57;;;;;;;;;40.25;31.75;;;;;;;;4917292;29;11630;-69
2024/03/14 12:24:23;;;;;;;;;43.00;36.00;;;;;;;;4915741;29;12871;-68
2024/03/14 12:26:49;;;;;;;;;22.50;21.75;;;;;;;;4916226;29;11604;-67
2024/03/14 12:29:16;;;;;;;;;26.00;24.25;;;;;;;;4915809;29;8817;-68
2024/03/14 12:31:45;;;;;;;;;21.00;21.00;;;;;;;;4916070;29;11579;-67
2024/03/14 12:34:12;;;;;;;;;21.00;19.75;;;;;;;;4917160;29;11657;-71
2024/03/14 12:36:39;;;;;;;;;23.00;21.50;;;;;;;;4917043;29;11676;-72
2024/03/14 12:39:05;;;;;;;;;27.75;25.50;;;;;;;;4916811;29;11644;-72
2024/03/14 12:41:31;;;;;;;;;28.50;22.00;;;;;;;;4917083;29;11581;-72
2024/03/14 12:43:57;;;;;;;;;24.75;22.00;;;;;;;;4926656;29;11623;-68
2024/03/14 12:46:23;;;;;;;;;28.50;24.00;;;;;;;;4935663;29;8840;-68
2024/03/14 12:48:48;;;;;;;;;20.50;20.50;;;;;;;;4935562;29;11592;-71
2024/03/14 12:51:23;;;;;;;;;28.00;25.75;;;;;;;;4935899;29;8925;-72
2024/03/14 12:54:01;;;;;;;;;27.50;21.75;;;;;;;;4936028;29;8806;-68
2024/03/14 12:56:27;;;;;;;;;28.25;24.25;;;;;;;;4935559;29;11566;-73
2024/03/14 12:58:57;;;;;;;;;26.50;24.25;;;;;;;;4932967;29;11662;-70
2024/03/14 13:01:28;;;;;;;;;31.75;23.50;;;;;;;;4935461;29;8787;-71
2024/03/14 13:04:00;;;;;;;;;27.25;26.75;;;;;;;;4935498;29;11733;-71
2024/03/14 13:06:28;;;;;;;;;27.50;26.00;;;;;;;;4935338;29;11560;-69
2024/03/14 13:09:15;;;;;;;;;27.50;24.00;;;;;;;;4935193;29;12392;-66
2024/03/14 13:12:01;;;;;;;;;34.50;30.75;;;;;;;;4935401;29;11557;-67
2024/03/14 13:14:26;;;;;;;;;32.00;27.50;;;;;;;;4935123;29;11604;-67
2024/03/14 13:16:55;;;;;;;;;26.00;24.00;;;;;;;;4934985;29;11636;-65
2024/03/14 13:19:22;;;;;;;;;28.75;23.00;;;;;;;;4898538;28;8849;-66
2024/03/14 13:21:48;;;;;;;;;20.25;19.25;;;;;;;;4936002;29;11681;-66
2024/03/14 13:24:13;;;;;;;;;28.50;23.00;;;;;;;;4936359;29;11605;-70
2024/03/14 13:26:40;;;;;;;;;25.25;21.25;;;;;;;;4934036;29;11614;-70
2024/03/14 13:29:06;;;;;;;;;27.75;23.75;;;;;;;;4932774;28;8834;-70
2024/03/14 13:31:32;;;;;;;;;24.75;22.50;;;;;;;;4901159;28;11602;-69
2024/03/14 13:33:59;;;;;;;;;23.75;23.75;;;;;;;;4935670;29;11601;-65
2024/03/14 13:36:26;;;;;;;;;25.75;23.25;;;;;;;;4934337;29;8822;-65
2024/03/14 13:38:52;;;;;;;;;27.50;22.50;;;;;;;;4934056;29;11598;-65
2024/03/14 13:41:19;;;;;;;;;26.50;23.75;;;;;;;;4934351;29;11577;-65
2024/03/14 13:43:45;;;;;;;;;25.00;21.50;;;;;;;;4934216;29;8949;-65
2024/03/14 13:46:13;;;;;;;;;22.75;22.50;;;;;;;;4934189;29;11669;-66
2024/03/14 13:48:39;;;;;;;;;24.25;21.75;;;;;;;;4933862;29;11699;-66
2024/03/14 13:51:07;;;;;;;;;20.00;17.50;;;;;;;;4934077;29;11590;-66
2024/03/14 13:53:33;;;;;;;;;24.00;18.75;;;;;;;;4934214;29;8811;-65
2024/03/14 13:55:59;;;;;;;;;25.00;21.25;;;;;;;;4934073;29;11618;-65
2024/03/14 13:58:25;;;;;;;;;22.00;20.00;;;;;;;;4933577;29;11624;-65
2024/03/14 14:00:54;;;;;;;;;23.75;21.50;;;;;;;;4933827;29;8885;-66
2024/03/14 14:03:20;;;;;;;;;19.00;16.75;;;;;;;;4934058;29;11739;-66
2024/03/14 14:05:46;;;;;;;;;22.25;18.25;;;;;;;;4933835;29;11547;-65
2024/03/14 14:08:11;;;;;;;;;21.25;19.00;;;;;;;;4933746;29;11601;-66
2024/03/14 14:10:37;;;;;;;;;18.75;18.75;;;;;;;;4933747;29;9750;-67
2024/03/14 14:13:02;;;;;;;;;22.75;21.75;;;;;;;;4934057;29;8810;-67
2024/03/14 14:15:29;;;;;;;;;25.75;22.00;;;;;;;;4934224;29;8803;-68
2024/03/14 14:17:54;;;;;;;;;18.25;18.00;;;;;;;;4934175;29;8822;-68
2024/03/14 14:20:21;;;;;;;;;25.75;19.75;;;;;;;;4932295;29;11703;-67
2024/03/14 14:22:46;;;;;;;;;27.50;18.75;;;;;;;;4933956;29;8838;-67
2024/03/14 14:25:12;;;;;;;;;22.50;18.50;;;;;;;;4933925;29;11544;-67
2024/03/14 14:27:43;;;;;;;;;23.75;20.50;;;;;;;;4933898;29;8826;-67
2024/03/14 14:30:16;;;;;;;;;18.75;17.00;;;;;;;;4933902;29;8798;-67
2024/03/14 14:32:41;;;;;;;;;19.75;18.00;;;;;;;;4933115;29;11594;-69
2024/03/14 14:35:08;;;;;;;;;18.25;16.75;;;;;;;;4933212;29;11492;-68
2024/03/14 14:37:33;;;;;;;;;19.50;17.25;;;;;;;;4932651;29;8834;-68
2024/03/14 14:39:59;;;;;;;;;18.50;18.00;;;;;;;;4931484;29;11631;-67
2024/03/14 14:42:26;;;;;;;;;21.25;16.75;;;;;;;;4933050;29;8848;-67
2024/03/14 14:44:51;;;;;;;;;22.50;17.00;;;;;;;;4933079;29;8840;-68
2024/03/14 14:47:16;;;;;;;;;21.25;16.25;;;;;;;;4947711;29;11558;-70
2024/03/14 14:49:42;;;;;;;;;20.50;18.25;;;;;;;;4932697;29;8826;-71
2024/03/14 14:52:08;;;;;;;;;16.00;16.00;;;;;;;;4933060;29;8834;-68
2024/03/14 14:54:35;;;;;;;;;15.75;13.00;;;;;;;;4931868;29;8872;-68
2024/03/14 14:57:02;;;;;;;;;19.75;17.00;;;;;;;;4932821;29;8822;-68
2024/03/14 14:59:29;;;;;;;;;20.25;16.50;;;;;;;;4931073;29;12298;-69
2024/03/14 15:01:56;;;;;;;;;25.00;19.25;;;;;;;;4933167;29;11487;-69
2024/03/14 15:04:22;;;;;;;;;22.50;19.25;;;;;;;;4932137;29;11525;-70
2024/03/14 15:06:47;;;;;;;;;22.75;20.75;;;;;;;;4931321;29;11506;-70
2024/03/14 15:09:14;;;;;;;;;22.00;18.00;;;;;;;;4930857;29;8831;-71
2024/03/14 15:11:40;;;;;;;;;26.00;21.00;;;;;;;;4932290;29;8928;-70
2024/03/14 15:14:05;;;;;;;;;22.50;21.25;;;;;;;;4932736;29;12257;-71
2024/03/14 15:16:31;;;;;;;;;18.25;18.25;;;;;;;;4932747;29;8830;-71
2024/03/14 15:18:57;;;;;;;;;17.75;17.75;;;;;;;;4931937;29;8898;-71
2024/03/14 15:21:23;;;;;;;;;17.25;17.25;;;;;;;;4933490;29;11513;-71
2024/03/14 15:23:48;;;;;;;;;16.00;16.00;;;;;;;;4932478;29;8834;-70
2024/03/14 15:26:15;;;;;;;;;19.25;18.50;;;;;;;;4933561;29;11498;-68
2024/03/14 15:28:40;;;;;;;;;17.50;14.50;;;;;;;;4933394;29;8802;-70
2024/03/14 15:31:06;;;;;;;;;21.25;17.75;;;;;;;;4933167;29;11601;-71
2024/03/14 15:33:31;;;;;;;;;20.00;18.75;;;;;;;;4933470;29;8829;-70
2024/03/14 15:35:57;;;;;;;;;20.50;17.25;;;;;;;;4933299;29;8810;-71
2024/03/14 15:38:23;;;;;;;;;17.00;17.00;;;;;;;;4933285;29;8921;-71
2024/03/14 15:40:48;;;;;;;;;23.50;17.50;;;;;;;;4933386;29;8786;-71
2024/03/14 15:43:14;;;;;;;;;21.00;18.75;;;;;;;;4931631;29;9517;-69
2024/03/14 15:45:40;;;;;;;;;20.50;18.00;;;;;;;;4936340;29;8802;-69
2024/03/14 15:48:05;;;;;;;;;23.00;21.50;;;;;;;;4937082;29;8790;-69
2024/03/14 15:50:32;;;;;;;;;20.00;19.25;;;;;;;;4937179;29;8794;-70
2024/03/14 15:52:59;;;;;;;;;23.00;20.75;;;;;;;;4936860;29;8897;-71
2024/03/14 15:55:25;;;;;;;;;18.50;15.00;;;;;;;;4928704;29;11497;-68
2024/03/14 15:57:50;;;;;;;;;18.25;16.50;;;;;;;;4936943;29;11629;-68
2024/03/14 16:00:15;;;;;;;;;19.75;18.00;;;;;;;;4936977;29;8841;-68
2024/03/14 16:02:41;;;;;;;;;20.25;17.25;;;;;;;;4936717;29;8885;-68
2024/03/14 16:05:09;;;;;;;;;20.25;19.75;;;;;;;;4936316;29;8814;-68
2024/03/14 16:07:36;;;;;;;;;21.00;19.00;;;;;;;;4936456;29;8817;-68
2024/03/14 16:10:02;;;;;;;;;20.75;18.25;;;;;;;;4935880;29;12311;-68
2024/03/14 16:12:27;;;;;;;;;19.00;18.00;;;;;;;;4935177;29;11515;-68
2024/03/14 16:14:52;;;;;;;;;20.75;19.00;;;;;;;;4935844;29;8807;-69
2024/03/14 16:17:18;;;;;;;;;14.50;12.50;;;;;;;;4936498;29;8847;-67
2024/03/14 16:19:43;;;;;;;;;14.00;14.00;;;;;;;;4936471;29;8807;-68
2024/03/14 16:22:08;;;;;;;;;12.00;10.25;;;;;;;;4936699;29;8814;-73
2024/03/14 16:24:37;;;;;;;;;13.50;13.50;;;;;;;;4936458;29;8837;-68
2024/03/14 16:27:03;;;;;;;;;12.00;10.25;;;;;;;;4936481;29;8779;-71
2024/03/14 16:29:28;;;;;;;;;9.00;9.00;;;;;;;;4936215;29;11100;-68
2024/03/14 16:31:55;;;;;;;;;10.75;9.00;;;;;;;;4936187;29;11117;-70
2024/03/14 16:34:20;;;;;;;;;8.75;7.50;;;;;;;;4936534;29;8818;-71
2024/03/14 16:36:45;;;;;;;;;13.50;13.00;;;;;;;;4936124;29;11567;-70
2024/03/14 16:39:18;;;;;;;;;11.00;11.00;;;;;;;;4936148;29;8939;-70
2024/03/14 16:41:43;;;;;;;;;12.75;12.25;;;;;;;;4934466;29;8825;-73
2024/03/14 16:44:08;;;;;;;;;13.75;13.00;;;;;;;;4935063;29;11518;-71
2024/03/14 16:46:38;;;;;;;;;12.50;12.50;;;;;;;;4933871;29;8821;-70
2024/03/14 16:49:03;;;;;;;;;19.00;14.75;;;;;;;;4935785;29;8811;-69
2024/03/14 16:51:28;;;;;;;;;14.00;12.00;;;;;;;;4931840;29;11570;-72
2024/03/14 16:53:54;;;;;;;;;15.00;14.00;;;;;;;;4933120;29;8807;-74
2024/03/14 16:56:19;;;;;;;;;13.00;13.00;;;;;;;;4933167;29;8861;-77
2024/03/14 16:58:44;;;;;;;;;17.00;16.50;;;;;;;;4934671;29;8831;-75
2024/03/14 17:01:09;;;;;;;;;18.25;18.00;;;;;;;;4933330;29;8881;-75
2024/03/14 17:03:35;;;;;;;;;17.25;12.75;;;;;;;;4932192;29;8940;-78
2024/03/14 17:06:04;;;;;;;;;19.25;18.50;;;;;;;;4933309;29;8916;-81
2024/03/14 17:08:30;;;;;;;;;18.00;16.00;;;;;;;;4934750;29;8953;-84
2024/03/14 17:10:58;;;;;;;;;16.75;16.25;;;;;;;;4932068;29;11642;-79
2024/03/14 17:13:29;;;;;;;;;19.25;18.25;;;;;;;;4935070;29;8922;-76
2024/03/14 17:15:54;;;;;;;;;17.75;15.25;;;;;;;;4937181;29;11539;-74
2024/03/14 17:18:20;;;;;;;;;17.50;14.75;;;;;;;;4932450;29;11563;-74
2024/03/14 17:20:46;;;;;;;;;19.25;19.25;;;;;;;;4932839;29;8795;-74
2024/03/14 17:23:11;;;;;;;;;18.00;16.75;;;;;;;;4934717;29;8841;-72
2024/03/14 17:25:37;;;;;;;;;24.50;20.50;;;;;;;;4934590;29;8794;-75
2024/03/14 17:28:04;;;;;;;;;21.00;17.75;;;;;;;;4933257;29;8819;-74
2024/03/14 17:30:29;;;;;;;;;19.75;18.75;;;;;;;;4932750;29;8819;-70
2024/03/14 17:32:55;;;;;;;;;20.50;15.25;;;;;;;;4933150;29;11530;-74
2024/03/14 17:35:21;;;;;;;;;19.25;15.25;;;;;;;;4934702;29;8914;-76
2024/03/14 17:37:47;;;;;;;;;18.75;16.50;;;;;;;;4934578;29;11731;-74
2024/03/14 17:40:13;;;;;;;;;16.00;16.00;;;;;;;;4932581;29;9578;-75
2024/03/14 17:42:42;;;;;;;;;17.00;13.75;;;;;;;;4933679;29;11608;-78
2024/03/14 17:45:09;;;;;;;;;15.00;13.50;;;;;;;;4934419;29;11525;-82
2024/03/14 17:47:34;;;;;;;;;13.75;12.50;;;;;;;;4949166;29;8902;-76
2024/03/14 17:50:00;;;;;;;;;12.00;12.00;;;;;;;;4932432;29;11582;-74
2024/03/14 17:52:25;;;;;;;;;11.75;11.25;;;;;;;;4934016;29;8838;-76
2024/03/14 17:54:52;;;;;;;;;11.75;9.00;;;;;;;;4934199;29;8819;-75
2024/03/14 17:57:17;;;;;;;;;8.50;8.50;;;;;;;;4934294;29;8815;-74
2024/03/14 17:59:43;;;;;;;;;10.00;10.00;;;;;;;;4932757;29;11511;-78
2024/03/14 18:02:08;;;;;;;;;11.00;8.50;;;;;;;;4933663;29;8897;-76
2024/03/14 18:04:33;;;;;;;;;12.00;10.50;;;;;;;;4933884;29;8806;-78
2024/03/14 18:07:02;;;;;;;;;9.00;9.00;;;;;;;;4934092;29;8849;-75
2024/03/14 18:09:27;;;;;;;;;10.50;8.00;;;;;;;;4932227;29;8838;-72
2024/03/14 18:11:56;;;;;;;;;7.25;7.00;;;;;;;;4932974;29;11470;-75
2024/03/14 18:14:28;;;;;;;;;12.00;10.00;;;;;;;;4932462;29;8857;-71
2024/03/14 18:16:54;;;;;;;;;12.00;7.50;;;;;;;;4931359;29;11562;-77
2024/03/14 18:19:22;;;;;;;;;12.25;10.00;;;;;;;;4933150;29;11512;-80
2024/03/14 18:21:48;;;;;;;;;13.00;12.00;;;;;;;;4932456;29;11496;-73
2024/03/14 18:24:13;;;;;;;;;12.75;12.50;;;;;;;;4933558;29;11488;-82
2024/03/14 18:26:39;;;;;;;;;16.00;13.50;;;;;;;;4929137;29;11603;-75
2024/03/14 18:29:04;;;;;;;;;12.25;11.00;;;;;;;;4933602;29;9133;-74
2024/03/14 18:31:30;;;;;;;;;13.75;12.00;;;;;;;;4945209;29;8831;-74
2024/03/14 18:33:56;;;;;;;;;12.50;11.00;;;;;;;;4947999;29;8934;-72
2024/03/14 18:36:23;;;;;;;;;13.00;12.75;;;;;;;;4933604;29;12505;-71
2024/03/14 18:38:48;;;;;;;;;13.25;13.25;;;;;;;;4933456;29;9600;-73
2024/03/14 18:41:14;;;;;;;;;15.25;14.50;;;;;;;;4935937;28;11502;-72
2024/03/14 18:43:39;;;;;;;;;17.00;13.00;;;;;;;;4933467;29;9590;-80
2024/03/14 18:46:06;;;;;;;;;16.50;13.75;;;;;;;;4933937;29;8818;-79
2024/03/14 18:48:31;;;;;;;;;18.25;14.50;;;;;;;;4933632;29;8839;-69
2024/03/14 18:50:57;;;;;;;;;13.75;13.75;;;;;;;;4931162;29;11563;-71
2024/03/14 18:53:22;;;;;;;;;9.25;8.50;;;;;;;;4932778;29;8831;-72
2024/03/14 18:55:48;;;;;;;;;16.25;13.50;;;;;;;;4931809;29;8830;-73
2024/03/14 18:58:14;;;;;;;;;13.25;13.25;;;;;;;;4933547;29;8850;-74
2024/03/14 19:00:39;;;;;;;;;13.25;12.00;;;;;;;;4930028;29;11675;-72
2024/03/14 19:03:04;;;;;;;;;13.25;13.25;;;;;;;;4931777;29;8831;-73
2024/03/14 19:05:31;;;;;;;;;14.75;13.75;;;;;;;;4931259;29;8810;-71
2024/03/14 19:08:01;;;;;;;;;16.25;14.50;;;;;;;;4932494;29;9607;-71
2024/03/14 19:10:27;;;;;;;;;16.75;15.50;;;;;;;;4930558;29;11520;-72
2024/03/14 19:12:52;;;;;;;;;16.00;14.00;;;;;;;;4932806;29;11487;-75
2024/03/14 19:15:18;;;;;;;;;18.00;15.50;;;;;;;;4932564;29;8787;-76
2024/03/14 19:17:43;;;;;;;;;17.50;14.50;;;;;;;;4946722;29;8845;-75
2024/03/14 19:20:09;;;;;;;;;18.00;14.25;;;;;;;;4930151;29;8858;-71
2024/03/14 19:22:34;;;;;;;;;17.00;16.75;;;;;;;;4932607;29;8827;-78
2024/03/14 19:25:00;;;;;;;;;19.00;13.00;;;;;;;;4932057;29;8870;-80
2024/03/14 19:27:25;;;;;;;;;20.75;15.75;;;;;;;;4931526;29;8819;-72
2024/03/14 19:29:51;;;;;;;;;18.00;13.00;;;;;;;;4929253;29;11785;-73
2024/03/14 19:32:19;;;;;;;;;17.50;15.75;;;;;;;;4932779;29;8814;-72
2024/03/14 19:34:44;;;;;;;;;18.00;15.75;;;;;;;;4932267;29;8830;-70
2024/03/14 19:37:10;;;;;;;;;13.25;12.00;;;;;;;;4932372;29;12368;-74
2024/03/14 19:39:35;;;;;;;;;21.75;16.50;;;;;;;;4928847;29;8932;-70
2024/03/14 19:42:01;;;;;;;;;24.25;16.75;;;;;;;;4931406;29;8792;-70
2024/03/14 19:44:28;;;;;;;;;23.75;19.00;;;;;;;;4932262;29;8811;-76
2024/03/14 19:46:53;;;;;;;;;26.25;18.50;;;;;;;;4932977;29;8803;-73
2024/03/14 19:49:18;;;;;;;;;20.50;19.00;;;;;;;;4931163;29;11630;-71
2024/03/14 19:51:44;;;;;;;;;14.25;12.75;;;;;;;;4931723;29;8857;-74
2024/03/14 19:54:09;;;;;;;;;18.00;18.00;;;;;;;;4932381;29;8818;-73
2024/03/14 19:56:37;;;;;;;;;18.00;16.25;;;;;;;;4932058;29;8837;-78
2024/03/14 19:59:03;;;;;;;;;14.25;12.75;;;;;;;;4929053;29;8892;-76
2024/03/14 20:01:28;;;;;;;;;16.50;16.50;;;;;;;;4930839;29;12325;-75
2024/03/14 20:03:53;;;;;;;;;21.25;16.75;;;;;;;;4931526;29;8827;-76
2024/03/14 20:06:19;;;;;;;;;11.00;7.00;;;;;;;;4932574;29;8837;-76
2024/03/14 20:08:45;;;;;;;;;13.50;12.00;;;;;;;;4947428;29;8827;-76
2024/03/14 20:11:13;;;;;;;;;15.50;12.75;;;;;;;;4926484;29;9601;-72
2024/03/14 20:13:40;;;;;;;;;10.00;10.00;;;;;;;;4932807;29;8802;-71
2024/03/14 20:16:05;;;;;;;;;10.75;9.75;;;;;;;;4943195;29;11717;-76
2024/03/14 20:18:30;;;;;;;;;13.00;11.50;;;;;;;;4932245;28;11605;-76
2024/03/14 20:20:56;;;;;;;;;13.75;11.50;;;;;;;;4928952;29;8825;-76
2024/03/14 20:23:22;;;;;;;;;12.25;11.00;;;;;;;;4932284;29;8809;-76
2024/03/14 20:25:49;;;;;;;;;16.00;11.00;;;;;;;;4932134;29;9533;-77
2024/03/14 20:28:14;;;;;;;;;11.50;11.50;;;;;;;;4932679;29;11575;-78
2024/03/14 20:30:41;;;;;;;;;14.50;14.50;;;;;;;;4930858;29;12384;-77
2024/03/14 20:33:07;;;;;;;;;14.50;14.25;;;;;;;;4935978;29;8890;-74
2024/03/14 20:35:32;;;;;;;;;15.75;12.75;;;;;;;;4935328;29;11697;-78
2024/03/14 20:37:58;;;;;;;;;12.75;12.75;;;;;;;;4935720;29;8823;-80